Temp: 5.3°C   Baro: 1014.1mb
  Wind: 4.0mph   Dir: ESE (115°)
  Rain: 1.4mm (0.0mm/hr)
  Solar: 0W/m2  Hum: 95%
 
Bath Spa Weather Station Historical Data
Daily Summary for October 23, 2020 Units:  Metric    English   Both
Daily Weekly Monthly Yearly Custom
  High: Low: Average:
Temperature: 12.8 °C 6.3 °C 10.6 °C
Dew Point: 11.3 °C 5 °C 9 °C
Humidity: 94% 74% 87%
Wind Speed: 18km/h 0km/h 4.3km/h
Wind Gust: 33.8km/h - -
Wind- - WSW
Pressure: 1009.7 hPa 1006 hPa -
Precipitation: 2.29 mm    
Historical Graphs
 
 
Tabular Data for October 23, 2020
Time Temperature Dew Point Pressure Wind Wind Speed Wind Gust Humidity Rainfall Rate (Hourly) solar
00:04 10.1 °C 8.9 °C 1009 hPa ESE 2.6 km/h 8 km/h 89% 0 mm 0 W/m2
00:09 10.2 °C 9 °C 1008.7 hPa East 1 km/h 8 km/h 89% 0 mm 0 W/m2
00:14 10.2 °C 9 °C 1008.7 hPa East 1 km/h 8 km/h 89% 0 mm 0 W/m2
00:19 10.3 °C 9.1 °C 1008.7 hPa ESE 4.3 km/h 11.3 km/h 89% 0 mm 0 W/m2
00:24 10.3 °C 9.1 °C 1008.7 hPa SSE 1.9 km/h 8 km/h 89% 0 mm 0 W/m2
00:29 10.4 °C 9.2 °C 1008.7 hPa Calm     89% 0 mm 0 W/m2
00:34 10.4 °C 9.2 °C 1008.7 hPa Calm     89% 0 mm 0 W/m2
00:39 10.4 °C 9.2 °C 1008.7 hPa Calm   4.8 km/h 89% 0 mm 0 W/m2
00:44 10.4 °C 9.2 °C 1008.4 hPa Calm     89% 0 mm 0 W/m2
00:49 10.5 °C 9.3 °C 1008.4 hPa Calm     89% 0 mm 0 W/m2
00:54 10.5 °C 9.3 °C 1008.4 hPa Calm     89% 0 mm 0 W/m2
00:59 10.6 °C 9.3 °C 1008.4 hPa Calm     89.2% 0 mm 0 W/m2
01:04 10.6 °C 9.5 °C 1008.4 hPa Calm   1.6 km/h 90% 0 mm 0 W/m2
01:09 10.7 °C 9.6 °C 1008.4 hPa SE 0.6 km/h 4.8 km/h 90% 0.25 mm 0 W/m2
01:14 10.7 °C 9.6 °C 1008.4 hPa SE 0.6 km/h 4.8 km/h 90% 0.25 mm 0 W/m2
01:18 10.7 °C 9.6 °C 1008.4 hPa Calm   1.6 km/h 90% 0.25 mm 0 W/m2
01:24 10.7 °C 9.6 °C 1008 hPa ESE 0.6 km/h 4.8 km/h 90% 0.25 mm 0 W/m2
01:29 10.7 °C 9.6 °C 1008 hPa Calm   1.6 km/h 90% 0.25 mm 0 W/m2
01:34 10.7 °C 9.6 °C 1008 hPa Calm     90% 0.25 mm 0 W/m2
01:39 10.7 °C 9.6 °C 1008 hPa Calm   3.2 km/h 90% 0.25 mm 0 W/m2
01:44 10.7 °C 9.6 °C 1008 hPa Calm   3.2 km/h 90% 0.25 mm 0 W/m2
01:49 10.7 °C 9.6 °C 1008 hPa Calm     90% 0.25 mm 0 W/m2
01:54 10.7 °C 9.7 °C 1008 hPa Calm     90.6% 0.25 mm 0 W/m2
01:59 10.7 °C 9.8 °C 1007.7 hPa Calm     91% 0.25 mm 0 W/m2
02:04 10.7 °C 9.8 °C 1007.7 hPa Calm     91% 0.25 mm 0 W/m2
02:09 10.8 °C 9.9 °C 1007.7 hPa Calm     91% 0.25 mm 0 W/m2
02:14 10.8 °C 9.9 °C 1007.7 hPa ENE 0.6 km/h 3.2 km/h 91% 0 mm 0 W/m2
02:19 10.8 °C 9.9 °C 1007.3 hPa Calm   3.2 km/h 91% 0 mm 0 W/m2
02:24 10.8 °C 9.9 °C 1007.3 hPa ENE 0.3 km/h 3.2 km/h 91% 0 mm 0 W/m2
02:29 10.8 °C 9.9 °C 1007.3 hPa ENE 0.8 km/h 3.2 km/h 91% 0 mm 0 W/m2
02:34 10.8 °C 9.9 °C 1007.3 hPa Calm   3.2 km/h 91% 0 mm 0 W/m2
02:39 10.8 °C 9.9 °C 1007.3 hPa Calm   1.6 km/h 91.2% 0 mm 0 W/m2
02:44 10.9 °C 10.1 °C 1007.3 hPa ENE 1.6 km/h 4.8 km/h 92% 0 mm 0 W/m2
02:49 10.9 °C 10.2 °C 1007.3 hPa ENE 0.3 km/h 1.6 km/h 92% 0 mm 0 W/m2
02:54 11.1 °C 10.2 °C 1007 hPa Calm   1.6 km/h 92% 0 mm 0 W/m2
02:59 11.1 °C 10.3 °C 1007 hPa Calm   1.6 km/h 92% 0 mm 0 W/m2
03:04 11.2 °C 10.4 °C 1007 hPa ENE 0.6 km/h 3.2 km/h 92% 0.25 mm 0 W/m2
03:09 11.3 °C 10.4 °C 1007 hPa ENE 1.6 km/h 3.2 km/h 92% 0.51 mm 0 W/m2
03:14 11.3 °C 10.6 °C 1006.7 hPa ENE 1.3 km/h 4.8 km/h 92.2% 0.51 mm 0 W/m2
03:19 11.4 °C 10.7 °C 1006.7 hPa ENE 0.8 km/h 4.8 km/h 92.8% 0.51 mm 0 W/m2
03:24 11.4 °C 10.8 °C 1006.7 hPa NNW 5.1 km/h 16.1 km/h 93% 0.51 mm 0 W/m2
03:29 11.3 °C 10.8 °C 1006.7 hPa WNW 3.2 km/h 16.1 km/h 93% 0.76 mm 0 W/m2
03:34 11.3 °C 10.7 °C 1006.7 hPa NW 0.6 km/h 4.8 km/h 93% 1.02 mm 0 W/m2
03:39 11.4 °C 10.8 °C 1006.3 hPa NW 3.9 km/h 6.4 km/h 93% 1.27 mm 0 W/m2
03:44 11.4 °C 10.8 °C 1006.3 hPa NW 1 km/h 3.2 km/h 93% 1.27 mm 0 W/m2
03:49 11.4 °C 10.8 °C 1006.3 hPa NW 0.6 km/h 3.2 km/h 93% 1.78 mm 0 W/m2
03:54 11.4 °C 10.8 °C 1006.3 hPa Calm   1.6 km/h 93% 1.78 mm 0 W/m2
03:59 11.4 °C 10.8 °C 1006.3 hPa Calm   4.8 km/h 93% 1.78 mm 0 W/m2
04:04 11.4 °C 10.8 °C 1006.3 hPa NW 0.3 km/h 1.6 km/h 93% 1.78 mm 0 W/m2
04:09 11.4 °C 10.8 °C 1006.3 hPa WSW 1.6 km/h 6.4 km/h 93% 1.52 mm 0 W/m2
04:14 11.5 °C 11.1 °C 1006.3 hPa West 1.4 km/h 6.4 km/h 94% 1.52 mm 0 W/m2
04:19 11.6 °C 11.1 °C 1006.3 hPa West 3.5 km/h 9.7 km/h 93.4% 1.52 mm 0 W/m2
04:24 11.6 °C 11.2 °C 1006.3 hPa West 6.3 km/h 11.3 km/h 94% 1.52 mm 0 W/m2
04:29 11.6 °C 11.2 °C 1006.3 hPa West 2.7 km/h 9.7 km/h 94% 1.27 mm 0 W/m2
04:34 11.6 °C 11.2 °C 1006.3 hPa SW 0.8 km/h 6.4 km/h 94% 1.02 mm 0 W/m2
04:38 11.5 °C 11.1 °C 1006.3 hPa SW 2.7 km/h 8 km/h 94% 1.02 mm 0 W/m2
04:44 11.5 °C 11.1 °C 1006.3 hPa SW 1 km/h 8 km/h 94% 0.76 mm 0 W/m2
04:49 11.4 °C 11 °C 1006.3 hPa WSW 3.4 km/h 6.4 km/h 94% 0.51 mm 0 W/m2
04:54 11.4 °C 11 °C 1006.3 hPa WSW 2.9 km/h 6.4 km/h 94% 0 mm 0 W/m2
04:59 11.4 °C 11 °C 1006.3 hPa WSW 0.6 km/h 6.4 km/h 94% 0 mm 0 W/m2
05:04 11.3 °C 10.9 °C 1006.3 hPa WSW 1.4 km/h 6.4 km/h 94% 0 mm 0 W/m2
05:09 11.3 °C 10.9 °C 1006.3 hPa SW 3.4 km/h 9.7 km/h 94% 0 mm 0 W/m2
05:14 11.3 °C 10.9 °C 1006.3 hPa WSW 3.2 km/h 8 km/h 94% 0 mm 0 W/m2
05:19 11.2 °C 10.8 °C 1006.3 hPa WSW 2.6 km/h 9.7 km/h 94% 0 mm 0 W/m2
05:24 11.2 °C 10.8 °C 1006.3 hPa WSW 3.4 km/h 12.9 km/h 94% 0 mm 0 W/m2
05:29 11.2 °C 10.8 °C 1006.3 hPa WSW 1.9 km/h 8 km/h 94% 0 mm 0 W/m2
05:34 11.3 °C 10.9 °C 1006.7 hPa WSW 4 km/h 11.3 km/h 94% 0 mm 0 W/m2
05:39 11.3 °C 10.9 °C 1006.7 hPa WSW 4.2 km/h 9.7 km/h 94% 0 mm 0 W/m2
05:44 11.3 °C 10.9 °C 1006.3 hPa WSW 2.7 km/h 6.4 km/h 94% 0 mm 0 W/m2
05:49 11.4 °C 11 °C 1006.3 hPa SW 4.8 km/h 11.3 km/h 94% 0 mm 0 W/m2
05:54 11.4 °C 11 °C 1006.3 hPa WSW 2.7 km/h 11.3 km/h 94% 0 mm 0 W/m2
05:59 11.4 °C 11 °C 1006.3 hPa WSW 3.9 km/h 11.3 km/h 94% 0 mm 0 W/m2
06:04 11.4 °C 11 °C 1006.3 hPa SW 6.4 km/h 11.3 km/h 94% 0 mm 0 W/m2
06:09 11.4 °C 10.9 °C 1006.3 hPa SW 6.4 km/h 14.5 km/h 93.6% 0 mm 0 W/m2
06:14 11.4 °C 10.8 °C 1006.3 hPa SW 5.1 km/h 11.3 km/h 93% 0 mm 0 W/m2
06:19 11.4 °C 10.8 °C 1006.3 hPa SW 6.6 km/h 11.3 km/h 93% 0 mm 0 W/m2
06:24 11.3 °C 10.8 °C 1006.3 hPa SW 2.4 km/h 9.7 km/h 93% 0 mm 0 W/m2
06:29 11.3 °C 10.7 °C 1006 hPa SW 3.2 km/h 11.3 km/h 93% 0 mm 0 W/m2
06:34 11.2 °C 10.6 °C 1006.3 hPa SW 2.6 km/h 9.7 km/h 93% 0 mm 0 W/m2
06:39 11.1 °C 10.5 °C 1006.3 hPa West 0.8 km/h 6.4 km/h 93% 0 mm 0 W/m2
06:44 11 °C 10.4 °C 1006.3 hPa West 1 km/h 6.4 km/h 93% 0 mm 0 W/m2
06:46 10.9 °C 10.3 °C 1006 hPa West 3.2 km/h 6.4 km/h 93% 0 mm 0 W/m2
06:54 10.8 °C 10.2 °C 1006 hPa West 0.3 km/h 4.8 km/h 93% 0 mm 0 W/m2
06:59 10.8 °C 10.2 °C 1006.3 hPa SW 1.3 km/h 6.4 km/h 93% 0 mm 0 W/m2
07:04 10.7 °C 10.2 °C 1006.3 hPa South 0.3 km/h 6.4 km/h 93% 0 mm 0 W/m2
07:09 10.7 °C 10.1 °C 1006.3 hPa SSW 0.6 km/h 6.4 km/h 93% 0 mm 0 W/m2
07:14 10.6 °C 10 °C 1006.3 hPa SSW 0.6 km/h 3.2 km/h 93% 0 mm 0 W/m2
07:19 10.6 °C 10 °C 1006.3 hPa Calm   4.8 km/h 93% 0 mm 0 W/m2
07:24 10.4 °C 9.8 °C 1006.3 hPa Calm   1.6 km/h 93% 0 mm 0 W/m2
07:29 10.4 °C 9.8 °C 1006.3 hPa Calm   1.6 km/h 93% 0 mm 0 W/m2
07:34 10.3 °C 9.7 °C 1006.3 hPa Calm     93% 0 mm 0 W/m2
07:39 10.4 °C 9.8 °C 1006.3 hPa SSW 1 km/h 4.8 km/h 93% 0 mm 0 W/m2
07:44 10.6 °C 9.9 °C 1006.3 hPa Calm   4.8 km/h 93% 0 mm 5 W/m2
07:49 10.6 °C 9.9 °C 1006.3 hPa SSW 0.3 km/h 6.4 km/h 93% 0 mm 11 W/m2
07:54 10.6 °C 10 °C 1006.3 hPa SSW 0.3 km/h 4.8 km/h 93% 0 mm 11 W/m2
07:59 10.7 °C 10.1 °C 1006.3 hPa SSW 0.6 km/h 4.8 km/h 93% 0 mm 19 W/m2
08:04 10.7 °C 10.1 °C 1006.3 hPa SSW 0.3 km/h 3.2 km/h 93% 0 mm 37 W/m2
08:09 10.7 °C 10.1 °C 1006.3 hPa Calm     93% 0 mm 44 W/m2
08:14 10.8 °C 10.2 °C 1006.3 hPa Calm     93% 0 mm 30 W/m2
08:19 10.9 °C 10.3 °C 1006.3 hPa Calm     93% 0 mm 32 W/m2
08:24 10.9 °C 10.3 °C 1006.3 hPa Calm     93% 0 mm 33 W/m2
08:29 11 °C 10.4 °C 1006.3 hPa SSW 0.3 km/h 4.8 km/h 93% 0 mm 58 W/m2
08:34 11.1 °C 10.5 °C 1006 hPa SSW 1.4 km/h 4.8 km/h 93% 0 mm 54 W/m2
08:39 11.1 °C 10.5 °C 1006 hPa SSW 1.1 km/h 4.8 km/h 93% 0 mm 44 W/m2
08:44 11.1 °C 10.5 °C 1006.3 hPa SSW 1.6 km/h 4.8 km/h 93% 0 mm 19 W/m2
08:49 11.2 °C 10.6 °C 1006.3 hPa SW 2.1 km/h 8 km/h 93% 0 mm 25 W/m2
08:54 11.2 °C 10.7 °C 1006.3 hPa WSW 2.1 km/h 4.8 km/h 93% 0 mm 28 W/m2
08:59 11.2 °C 10.6 °C 1006 hPa NNW 1.9 km/h 6.4 km/h 93% 0 mm 33 W/m2
09:04 11.2 °C 10.6 °C 1006.3 hPa NNW 0.6 km/h 6.4 km/h 93% 0 mm 44 W/m2
09:09 11.2 °C 10.6 °C 1006 hPa WNW 1.6 km/h 8 km/h 93% 0 mm 67 W/m2
09:14 11.3 °C 10.7 °C 1006 hPa SW 2.7 km/h 6.4 km/h 93% 0 mm 84 W/m2
09:19 11.3 °C 10.7 °C 1006 hPa SW 2.3 km/h 8 km/h 93% 0 mm 91 W/m2
09:24 11.3 °C 10.8 °C 1006 hPa SSW 2.6 km/h 12.9 km/h 93% 0 mm 93 W/m2
09:29 11.5 °C 10.9 °C 1006 hPa SSW 4.7 km/h 9.7 km/h 93% 0 mm 95 W/m2
09:34 11.6 °C 10.9 °C 1006 hPa SSW 2.6 km/h 12.9 km/h 93% 0 mm 111 W/m2
09:39 11.6 °C 11 °C 1006 hPa SW 5.5 km/h 9.7 km/h 93% 0 mm 111 W/m2
09:44 11.7 °C 11.1 °C 1006 hPa SW 4 km/h 6.4 km/h 93% 0 mm 111 W/m2
09:49 11.7 °C 11.1 °C 1006 hPa SW 3.1 km/h 9.7 km/h 93% 0 mm 130 W/m2
09:54 11.8 °C 11 °C 1006 hPa WSW 3.4 km/h 9.7 km/h 92% 0 mm 146 W/m2
09:59 11.8 °C 11.1 °C 1006 hPa WSW 5.5 km/h 12.9 km/h 92% 0 mm 160 W/m2
10:04 11.9 °C 11.2 °C 1006.3 hPa WSW 5.5 km/h 11.3 km/h 92% 0 mm 172 W/m2
10:09 12 °C 11.2 °C 1006 hPa WSW 6.3 km/h 14.5 km/h 92% 0 mm 102 W/m2
10:14 12.1 °C 11.3 °C 1006.3 hPa WSW 9 km/h 16.1 km/h 92% 0 mm 109 W/m2
10:19 12 °C 11.2 °C 1006.3 hPa WSW 10.9 km/h 17.7 km/h 91.6% 0 mm 114 W/m2
10:24 12.1 °C 11.2 °C 1006.3 hPa WSW 7.6 km/h 17.7 km/h 91% 0 mm 100 W/m2
10:29 12.1 °C 11.2 °C 1006.3 hPa SW 10 km/h 17.7 km/h 91% 0 mm 95 W/m2
10:34 12.1 °C 11.2 °C 1006.3 hPa WSW 8.2 km/h 12.9 km/h 91% 0 mm 156 W/m2
10:38 12.1 °C 11.2 °C 1006.3 hPa WSW 8 km/h 14.5 km/h 90.8% 0 mm 248 W/m2
10:44 12.2 °C 11.1 °C 1006.3 hPa WSW 11.3 km/h 20.9 km/h 90% 0 mm 308 W/m2
10:49 12.3 °C 11.1 °C 1006.3 hPa WSW 5.5 km/h 17.7 km/h 89.4% 0 mm 211 W/m2
10:54 12.3 °C 11 °C 1006.3 hPa WSW 9.3 km/h 14.5 km/h 89% 0 mm 139 W/m2
10:59 12.3 °C 10.9 °C 1006.3 hPa West 11.3 km/h 19.3 km/h 88.8% 0 mm 127 W/m2
11:04 12.2 °C 10.8 °C 1006.7 hPa West 8.9 km/h 19.3 km/h 88% 0 mm 83 W/m2
11:09 12.1 °C 10.7 °C 1006.7 hPa WSW 12.9 km/h 24.1 km/h 88% 0 mm 105 W/m2
11:14 12.1 °C 10.7 °C 1006.7 hPa West 7.4 km/h 17.7 km/h 88% 0 mm 83 W/m2
11:19 12.1 °C 10.7 °C 1006.3 hPa WSW 10.6 km/h 19.3 km/h 88% 0 mm 111 W/m2
11:24 12 °C 10.5 °C 1006.7 hPa WSW 11.1 km/h 22.5 km/h 87.4% 0 mm 135 W/m2
11:29 12.1 °C 10.4 °C 1006.7 hPa West 12.4 km/h 24.1 km/h 87% 0 mm 139 W/m2
11:34 12.1 °C 10.2 °C 1006.7 hPa West 11.9 km/h 24.1 km/h 86% 0 mm 199 W/m2
11:39 12.1 °C 10.2 °C 1006.7 hPa WSW 12.2 km/h 25.7 km/h 85.8% 0 mm 199 W/m2
11:44 12.2 °C 10.2 °C 1006.7 hPa West 11.6 km/h 25.7 km/h 85% 0 mm 197 W/m2
11:49 12.2 °C 10.2 °C 1006.7 hPa West 10.3 km/h 16.1 km/h 85% 0 mm 239 W/m2
11:54 12.2 °C 10.2 °C 1006.7 hPa WSW 10.3 km/h 16.1 km/h 85% 0 mm 274 W/m2
11:59 12.3 °C 10.2 °C 1006.7 hPa West 15.8 km/h 24.1 km/h 84% 0 mm 464 W/m2
12:04 12.6 °C 10.3 °C 1006.7 hPa West 13.4 km/h 22.5 km/h 83% 0 mm 448 W/m2
12:09 12.4 °C 10.1 °C 1006.7 hPa West 11.9 km/h 25.7 km/h 83% 0 mm 148 W/m2
12:14 12.3 °C 10 °C 1006.7 hPa WSW 11.7 km/h 20.9 km/h 83% 0 mm 156 W/m2
12:19 12.3 °C 9.9 °C 1006.7 hPa WSW 11.9 km/h 20.9 km/h 82.8% 0 mm 251 W/m2
12:24 12.4 °C 10.1 °C 1006.7 hPa WSW 13.8 km/h 20.9 km/h 83% 0 mm 457 W/m2
12:29 12.4 °C 10 °C 1006.7 hPa WSW 11.4 km/h 22.5 km/h 82.4% 0 mm 538 W/m2
12:34 12.6 °C 10.1 °C 1006.7 hPa WSW 15.1 km/h 20.9 km/h 82.2% 0 mm 204 W/m2
12:39 12.4 °C 9.9 °C 1006.7 hPa WSW 15.1 km/h 24.1 km/h 82% 0 mm 167 W/m2
12:44 12.3 °C 9.8 °C 1006.7 hPa West 14.2 km/h 24.1 km/h 82% 0 mm 142 W/m2
12:49 12.2 °C 9.8 °C 1006.7 hPa West 18 km/h 24.1 km/h 83% 0 mm 137 W/m2
12:54 11.9 °C 9.8 °C 1007 hPa WSW 12.6 km/h 20.9 km/h 83.8% 0 mm 104 W/m2
12:59 11.8 °C 9.8 °C 1007 hPa WSW 7.1 km/h 17.7 km/h 84.6% 0 mm 105 W/m2
13:04 11.8 °C 9.9 °C 1006.7 hPa WSW 7.6 km/h 17.7 km/h 85.2% 0 mm 167 W/m2
13:09 11.8 °C 9.9 °C 1007 hPa WSW 8.9 km/h 19.3 km/h 86% 0 mm 186 W/m2
13:14 11.7 °C 9.9 °C 1007 hPa WSW 11.4 km/h 22.5 km/h 86% 0 mm 134 W/m2
13:19 11.7 °C 9.9 °C 1007 hPa SW 11.6 km/h 25.7 km/h 86% 0 mm 183 W/m2
13:24 11.7 °C 9.9 °C 1007 hPa SW 11.3 km/h 25.7 km/h 86% 0 mm 188 W/m2
13:29 11.7 °C 9.9 °C 1007 hPa WSW 10 km/h 24.1 km/h 86% 0 mm 88 W/m2
13:34 11.6 °C 9.8 °C 1007 hPa SW 12.6 km/h 24.1 km/h 86% 0 mm 81 W/m2
13:39 11.6 °C 9.8 °C 1007 hPa SW 9.3 km/h 17.7 km/h 86% 0 mm 79 W/m2
13:44 11.7 °C 9.9 °C 1007 hPa SW 7.7 km/h 14.5 km/h 86% 0 mm 86 W/m2
13:49 11.7 °C 9.9 °C 1007 hPa SW 9.7 km/h 16.1 km/h 86% 0 mm 91 W/m2
13:54 11.8 °C 10 °C 1006.7 hPa SW 7.9 km/h 17.7 km/h 86% 0 mm 95 W/m2
13:59 11.8 °C 10.1 °C 1006.7 hPa WSW 9.7 km/h 17.7 km/h 86% 0 mm 93 W/m2
14:04 11.9 °C 10.1 °C 1007 hPa West 9.7 km/h 22.5 km/h 86% 0 mm 95 W/m2
14:09 11.8 °C 10.1 °C 1007 hPa WSW 12.6 km/h 22.5 km/h 86% 0 mm 70 W/m2
14:14 11.7 °C 10 °C 1007 hPa West 12.6 km/h 25.7 km/h 86.4% 0 mm 53 W/m2
14:19 11.3 °C 9.7 °C 1007 hPa WNW 7.7 km/h 12.9 km/h 87% 0 mm 139 W/m2
14:24 11.1 °C 9.6 °C 1007 hPa WNW 6.8 km/h 14.5 km/h 87.4% 0 mm 325 W/m2
14:29 11.1 °C 9.8 °C 1007 hPa WNW 3.9 km/h 9.7 km/h 88.8% 0 mm 318 W/m2
14:34 11.2 °C 10.1 °C 1007 hPa NW 5.8 km/h 11.3 km/h 89.8% 0 mm 230 W/m2
14:39 11.3 °C 10.3 °C 1007 hPa NW 6 km/h 17.7 km/h 90% 0 mm 186 W/m2
14:44 11.4 °C 10.3 °C 1007 hPa WNW 9.5 km/h 20.9 km/h 90% 0 mm 160 W/m2
14:49 11.6 °C 10.3 °C 1007 hPa WNW 14.2 km/h 22.5 km/h 89.4% 0 mm 142 W/m2
14:54 11.7 °C 10.3 °C 1007 hPa WNW 6.8 km/h 17.7 km/h 88.6% 0 mm 186 W/m2
14:59 11.8 °C 10.3 °C 1007 hPa West 8.7 km/h 19.3 km/h 87.6% 0 mm 160 W/m2
15:04 11.9 °C 10.2 °C 1007 hPa West 13.2 km/h 24.1 km/h 86.8% 0 mm 199 W/m2
15:09 12.1 °C 10.1 °C 1007 hPa WNW 7.7 km/h 22.5 km/h 85.2% 0 mm 241 W/m2
15:14 12.1 °C 10 °C 1007 hPa WNW 8.7 km/h 22.5 km/h 84% 0 mm 193 W/m2
15:19 12.2 °C 9.9 °C 1007.3 hPa WNW 9 km/h 22.5 km/h 83% 0 mm 237 W/m2
15:24 12.3 °C 9.8 °C 1007.3 hPa WNW 14.2 km/h 22.5 km/h 82% 0 mm 390 W/m2
15:29 12.7 °C 9.9 °C 1007.3 hPa West 13.2 km/h 24.1 km/h 81% 0 mm 366 W/m2
15:34 12.8 °C 9.5 °C 1007.3 hPa West 14.5 km/h 27.4 km/h 78.2% 0 mm 336 W/m2
15:39 12.7 °C 9.2 °C 1007.3 hPa WNW 10.8 km/h 27.4 km/h 77% 0 mm 220 W/m2
15:44 12.4 °C 8.8 °C 1007.3 hPa WNW 15.4 km/h 27.4 km/h 76% 0 mm 250 W/m2
15:49 12.4 °C 8.9 °C 1007.3 hPa WNW 8.4 km/h 20.9 km/h 76.6% 0 mm 218 W/m2
15:54 12.3 °C 8.9 °C 1007.7 hPa WNW 13.8 km/h 25.7 km/h 77% 0 mm 190 W/m2
15:59 12.2 °C 9 °C 1007.7 hPa West 13.2 km/h 19.3 km/h 77.8% 0 mm 120 W/m2
16:04 12.2 °C 9 °C 1007.7 hPa WNW 10.3 km/h 19.3 km/h 78% 0 mm 264 W/m2
16:09 12.2 °C 9 °C 1008 hPa WNW 16.7 km/h 33.8 km/h 78% 0 mm 211 W/m2
16:14 12 °C 8.6 °C 1007.7 hPa WNW 14.2 km/h 33.8 km/h 77% 0 mm 58 W/m2
16:19 11.8 °C 8.5 °C 1008 hPa WNW 10.9 km/h 20.9 km/h 77.4% 0 mm 88 W/m2
16:24 11.8 °C 8.6 °C 1007.7 hPa WNW 10.8 km/h 20.9 km/h 78% 0 mm 97 W/m2
16:29 11.7 °C 8.6 °C 1007.7 hPa West 11.3 km/h 17.7 km/h 78.4% 0 mm 114 W/m2
16:34 11.7 °C 8.7 °C 1007.7 hPa WNW 10 km/h 16.1 km/h 79% 0 mm 100 W/m2
16:39 11.6 °C 8.6 °C 1007.7 hPa West 11.3 km/h 19.3 km/h 78.6% 0 mm 83 W/m2
16:44 11.6 °C 8.4 °C 1007.7 hPa WNW 10 km/h 19.3 km/h 78% 0 mm 107 W/m2
16:49 11.6 °C 8.2 °C 1008 hPa WNW 7.1 km/h 17.7 km/h 77% 0 mm 128 W/m2
16:54 11.7 °C 8.2 °C 1008 hPa West 7.9 km/h 17.7 km/h 76.4% 0 mm 116 W/m2
16:59 11.8 °C 8.1 °C 1008 hPa West 9.8 km/h 22.5 km/h 75.6% 0 mm 98 W/m2
17:04 11.8 °C 7.8 °C 1008 hPa West 5.6 km/h 17.7 km/h 74% 0 mm 84 W/m2
17:09 11.8 °C 7.8 °C 1008 hPa West 5.5 km/h 11.3 km/h 74% 0 mm 69 W/m2
17:14 11.7 °C 7.8 °C 1008 hPa WNW 9 km/h 20.9 km/h 74.2% 0 mm 60 W/m2
17:19 11.4 °C 7.4 °C 1008 hPa WNW 9.2 km/h 14.5 km/h 74% 0 mm 46 W/m2
17:24 11.3 °C 7.3 °C 1008 hPa WNW 7.7 km/h 14.5 km/h 74% 0 mm 70 W/m2
17:29 11.2 °C 7.3 °C 1008 hPa WNW 6.3 km/h 14.5 km/h 74.4% 0 mm 70 W/m2
17:34 11.1 °C 7.2 °C 1008 hPa WNW 7.2 km/h 14.5 km/h 74.2% 0 mm 40 W/m2
17:39 11.1 °C 7.1 °C 1008 hPa WNW 9 km/h 14.5 km/h 74.2% 0 mm 21 W/m2
17:44 10.8 °C 7 °C 1008.4 hPa WNW 7.2 km/h 16.1 km/h 74.8% 0 mm 16 W/m2
17:49 10.7 °C 6.9 °C 1008.4 hPa WNW 7.6 km/h 17.7 km/h 75.2% 0 mm 12 W/m2
17:54 10.6 °C 6.9 °C 1008.7 hPa WNW 5.1 km/h 17.7 km/h 76% 0 mm 9 W/m2
17:59 10.3 °C 6.8 °C 1008.7 hPa West 6.6 km/h 12.9 km/h 76.4% 0 mm 0 W/m2
18:04 10.2 °C 6.8 °C 1008.7 hPa West 6 km/h 12.9 km/h 77% 0 mm 0 W/m2
18:09 10.1 °C 6.8 °C 1008.7 hPa West 5.8 km/h 11.3 km/h 77.4% 0 mm 0 W/m2
18:14 9.9 °C 6.7 °C 1008.7 hPa West 5.3 km/h 9.7 km/h 78% 0 mm 0 W/m2
18:19 9.8 °C 6.6 °C 1008.7 hPa West 5.1 km/h 11.3 km/h 78% 0 mm 0 W/m2
18:24 9.8 °C 6.7 °C 1009 hPa West 3.2 km/h 8 km/h 78.6% 0 mm 0 W/m2
18:29 9.7 °C 6.7 °C 1009 hPa West 3.9 km/h 6.4 km/h 79% 0 mm 0 W/m2
18:34 9.6 °C 6.6 °C 1009 hPa West 2.7 km/h 6.4 km/h 79% 0 mm 0 W/m2
18:39 9.4 °C 6.4 °C 1008.7 hPa West 3.4 km/h 6.4 km/h 79% 0 mm 0 W/m2
18:44 9.3 °C 6.3 °C 1008.7 hPa West 2.6 km/h 4.8 km/h 79% 0 mm 0 W/m2
18:49 9.2 °C 6.2 °C 1008.7 hPa West 1.9 km/h 4.8 km/h 79% 0 mm 0 W/m2
18:53 9.1 °C 6.2 °C 1009 hPa West 2.7 km/h 4.8 km/h 79.8% 0 mm 0 W/m2
18:59 8.9 °C 6.2 °C 1009 hPa West 3.2 km/h 4.8 km/h 80.4% 0 mm 0 W/m2
19:04 8.7 °C 6.1 °C 1009 hPa Calm   4.8 km/h 81% 0 mm 0 W/m2
19:09 8.6 °C 6.2 °C 1009 hPa West 2.3 km/h 3.2 km/h 82% 0 mm 0 W/m2
19:14 8.6 °C 6.2 °C 1009 hPa West 1 km/h 3.2 km/h 82.4% 0 mm 0 W/m2
19:19 8.4 °C 6.2 °C 1009 hPa Calm     83% 0 mm 0 W/m2
19:24 8.4 °C 6.2 °C 1009 hPa Calm     83% 0 mm 0 W/m2
19:29 8.4 °C 6.3 °C 1009 hPa Calm     83.6% 0 mm 0 W/m2
19:34 8.3 °C 6.2 °C 1009 hPa Calm     84% 0 mm 0 W/m2
19:39 8.1 °C 6.1 °C 1009 hPa Calm     84.4% 0 mm 0 W/m2
19:44 8.1 °C 6.2 °C 1009.4 hPa Calm     85% 0 mm 0 W/m2
19:49 8.1 °C 6.3 °C 1009.4 hPa West 1 km/h 4.8 km/h 85.2% 0 mm 0 W/m2
19:54 8.1 °C 6.4 °C 1009.4 hPa Calm     86% 0 mm 0 W/m2
19:59 8.2 °C 6.5 °C 1009.4 hPa Calm     86% 0 mm 0 W/m2
20:04 8.3 °C 6.6 °C 1009.4 hPa Calm     86% 0 mm 0 W/m2
20:09 8.2 °C 6.6 °C 1009.4 hPa West 0.3 km/h 3.2 km/h 86% 0 mm 0 W/m2
20:14 8.3 °C 6.6 °C 1009.4 hPa West 1 km/h 4.8 km/h 86% 0 mm 0 W/m2
20:19 8.3 °C 6.6 °C 1009.4 hPa Calm   4.8 km/h 86% 0 mm 0 W/m2
20:24 8.3 °C 6.6 °C 1009.4 hPa Calm     86% 0 mm 0 W/m2
20:29 8.3 °C 6.7 °C 1009.4 hPa West 1.3 km/h 4.8 km/h 86% 0 mm 0 W/m2
20:34 8.3 °C 6.6 °C 1009.4 hPa West 0.3 km/h 6.4 km/h 86% 0 mm 0 W/m2
20:39 8.2 °C 6.6 °C 1009.4 hPa West 2.7 km/h 8 km/h 86% 0 mm 0 W/m2
20:44 8.2 °C 6.3 °C 1009.7 hPa West 1.6 km/h 4.8 km/h 85% 0 mm 0 W/m2
20:49 8.3 °C 6.4 °C 1009.7 hPa WSW 5.6 km/h 9.7 km/h 85% 0 mm 0 W/m2
20:54 8.4 °C 6.4 °C 1009.7 hPa WSW 5.1 km/h 9.7 km/h 84.4% 0 mm 0 W/m2
20:59 8.4 °C 6.3 °C 1009.7 hPa WSW 3.1 km/h 6.4 km/h 83.8% 0 mm 0 W/m2
21:04 8.3 °C 6.1 °C 1009.7 hPa Calm   4.8 km/h 83% 0 mm 0 W/m2
21:09 8.2 °C 6 °C 1009.7 hPa WSW 0.6 km/h 3.2 km/h 83% 0 mm 0 W/m2
21:14 8.1 °C 5.8 °C 1009.7 hPa WSW 0.3 km/h 1.6 km/h 83% 0 mm 0 W/m2
21:19 7.9 °C 5.8 °C 1009.7 hPa WSW 0.3 km/h 3.2 km/h 83.4% 0 mm 0 W/m2
21:24 7.8 °C 5.8 °C 1009.7 hPa WSW 1.4 km/h 4.8 km/h 84% 0 mm 0 W/m2
21:29 7.7 °C 5.7 °C 1009.4 hPa WSW 1.6 km/h 3.2 km/h 84% 0 mm 0 W/m2
21:34 7.6 °C 5.7 °C 1009.7 hPa WSW 0.6 km/h 6.4 km/h 84.6% 0 mm 0 W/m2
21:39 7.6 °C 5.7 °C 1009.7 hPa WSW 0.6 km/h 6.4 km/h 85% 0 mm 0 W/m2
21:43 7.6 °C 5.7 °C 1009.7 hPa Calm     85% 0 mm 0 W/m2
21:49 7.4 °C 5.5 °C 1009.7 hPa Calm     85% 0 mm 0 W/m2
21:54 7.3 °C 5.4 °C 1009.7 hPa WSW 0.3 km/h 3.2 km/h 85% 0 mm 0 W/m2
21:59 7.2 °C 5.4 °C 1009.4 hPa Calm     85.4% 0 mm 0 W/m2
22:04 7.2 °C 5.5 °C 1009.7 hPa Calm     86% 0 mm 0 W/m2
22:09 7.1 °C 5.4 °C 1009.7 hPa Calm     86% 0 mm 0 W/m2
22:14 7.1 °C 5.4 °C 1009.7 hPa Calm     86% 0 mm 0 W/m2
22:19 7.1 °C 5.4 °C 1009.7 hPa Calm   1.6 km/h 86% 0 mm 0 W/m2
22:24 7.1 °C 5.4 °C 1009.4 hPa Calm   1.6 km/h 86% 0 mm 0 W/m2
22:29 7.1 °C 5.4 °C 1009.4 hPa Calm   1.6 km/h 86.2% 0 mm 0 W/m2
22:34 6.9 °C 5.4 °C 1009.4 hPa Calm   3.2 km/h 87% 0 mm 0 W/m2
22:39 6.9 °C 5.4 °C 1009.4 hPa Calm   1.6 km/h 87% 0 mm 0 W/m2
22:44 6.9 °C 5.4 °C 1009.4 hPa WSW 0.6 km/h 4.8 km/h 87% 0 mm 0 W/m2
22:49 6.9 °C 5.4 °C 1009.4 hPa WSW 0.6 km/h 3.2 km/h 87% 0 mm 0 W/m2
22:54 6.8 °C 5.3 °C 1009.7 hPa Calm   3.2 km/h 87% 0 mm 0 W/m2
22:59 6.8 °C 5.3 °C 1009.7 hPa WSW 0.6 km/h 3.2 km/h 87% 0 mm 0 W/m2
23:04 6.8 °C 5.3 °C 1009.4 hPa Calm     87% 0 mm 0 W/m2
23:09 6.8 °C 5.3 °C 1009.4 hPa Calm     87% 0 mm 0 W/m2
23:14 6.7 °C 5.2 °C 1009.4 hPa Calm     87% 0 mm 0 W/m2
23:19 6.6 °C 5.2 °C 1009.4 hPa Calm   4.8 km/h 87.4% 0 mm 0 W/m2
23:24 6.6 °C 5.2 °C 1009.4 hPa WSW 0.6 km/h 4.8 km/h 87.6% 0 mm 0 W/m2
23:29 6.6 °C 5.2 °C 1009 hPa Calm   1.6 km/h 88% 0 mm 0 W/m2
23:34 6.5 °C 5.1 °C 1009 hPa WSW 1 km/h 4.8 km/h 88% 0 mm 0 W/m2
23:39 6.4 °C 5.1 °C 1009 hPa WSW 1.3 km/h 4.8 km/h 88% 0 mm 0 W/m2
23:44 6.3 °C 5.1 °C 1009 hPa WSW 2.6 km/h 4.8 km/h 88% 0 mm 0 W/m2
23:49 6.3 °C 5 °C 1009 hPa WSW 2.7 km/h 4.8 km/h 88% 0 mm 0 W/m2
23:54 6.3 °C 5 °C 1009 hPa WSW 2.4 km/h 8 km/h 88% 0 mm 0 W/m2
23:59 6.4 °C 5.1 °C 1009 hPa WSW 0.6 km/h 8 km/h 88% 0 mm 0 W/m2
Bath Spa Weather
Compliments of Weather Underground - 2 mb